PASN

Details ICAO PASN (SNP)
Name ST PAUL ISLAND
Region USA (Alaska)
Timezone America/Adak (UTC-9.0)
Plans Departing 13
Arriving 16
Stats Elevation 63 ft / 19 m (AMSL)
Location 57.167319° -170.220444°
Runways 1
Magnetic Variation 7.455° E
Sunrise 2018-05-23 14:47:55 UTC / 2018-05-23 05:47:55 Local
Sunset 2018-05-24 07:50:17 UTC / 2018-05-23 22:50:17 Local
Advertisement - Login to hide

Runways

ID Width Length Bearing (true) Bearing (mag) Surface Threshold Offset Overrun Length
18 150 ft / 46 m 6,488 ft / 1,977 m 189.66° 182.21° Asphalt 0 ft / 0 m 0 ft / 0 m
36 150 ft / 46 m 6,488 ft / 1,977 m 9.65° 2.20° Asphalt 0 ft / 0 m 0 ft / 0 m

Approach Navaids

Runway Type Ident Frequency Range Bearing (true) Bearing (mag) Slope Elevation
36 Localiser IPAU 109.90 MHz 18 nm / 33 km 9.64° 2.19° - 63 ft / 19 m (AMSL)
36 Glidescope IPAU 109.90 MHz 10 nm / 19 km 9.66° 2.20° 3.00° 34 ft / 10 m (AMSL)

Map

Weather


0- 5 10 15 20 25 30 35+ Temperature / ° C

Clouds and Precipitation
Forecast for 2018-05-24 06:00 UTC. Updated 3 hours ago

Ground ~20,000 ft ~40,000 ft Winds

METAR

PASN 240653Z AUTO 11010KT 9SM OVC038 05/04 A2941 RMK AO2 SLP961 T00500039 TSNO

TAF

PASN 240541Z 2406/2506 10008KT P6SM BKN025 OVC040 FM241200 09007KT 5SM BR SCT005 BKN010 FM241600 07010KT 3SM BR OVC005

Frequencies

Recorded 135.75 MHz ASOS
Unicom 122.30 MHz CTAF
Warning: Do not use this data for real-world aviation or navigation. No guarantee of current accuracy is given.